^^
Station Historical Data
Daily Summary for March 3, 2017 Units:  Metric    English   Both
« Previous Day
Next Day »
Daily Weekly Monthly Yearly Custom
  High: Low: Average:
Temperature: 34.2 °C 19.9 °C 24.1 °C
Dew Point: 15.3 °C 0.2 °C 6.1 °C
Humidity: 52% 21% 32%
Wind Speed: 32km/h 0km/h 3.4km/h
Wind Gust: 32.2km/h - -
Wind- - SSW
Pressure: 1009 hPa 1001.6 hPa -
Precipitation: 0 mm    
Historical Graphs
 
 
Tabular Data for March 3, 2017
Time Temperature Dew Point Pressure Wind Wind Speed Wind Gust Humidity Rainfall Rate (Hourly) solar Conditions
01:39 22.1 °C 1.1 °C 1008 hPa Calm     25% 0 mm 0.0 W/m2
01:44 22.2 °C 1.2 °C 1008 hPa Calm     25% 0 mm 0.0 W/m2
01:50 22.1 °C 1.1 °C 1008 hPa Calm     25% 0 mm 0.0 W/m2
01:55 22 °C 1.1 °C 1008 hPa Calm     25% 0 mm 0.0 W/m2
02:00 22.1 °C 1.7 °C 1008 hPa Calm     26% 0 mm 0.0 W/m2
02:05 22.3 °C 1.3 °C 1008 hPa Calm     25% 0 mm 0.0 W/m2
02:10 22.3 °C 0.8 °C 1008 hPa Calm     24% 0 mm 0.0 W/m2
02:20 21.9 °C 1.5 °C 1008 hPa Calm     26% 0 mm 0.0 W/m2
02:25 21.7 °C 0.8 °C 1008.4 hPa Calm     25% 0 mm 0.0 W/m2
02:30 21.8 °C 0.3 °C 1008 hPa Calm     24% 0 mm 0.0 W/m2
02:36 21.9 °C 1 °C 1008 hPa Calm     25% 0 mm 0.0 W/m2
02:41 21.9 °C 0.4 °C 1008 hPa Calm     24% 0 mm 0.0 W/m2
02:46 21.8 °C 0.3 °C 1008 hPa Calm     24% 0 mm 0.0 W/m2
02:51 21.7 °C 0.2 °C 1007.7 hPa Calm     24% 0 mm 0.0 W/m2
02:56 21.7 °C 0.8 °C 1007.7 hPa Calm     25% 0 mm 0.0 W/m2
03:01 21.6 °C 2.3 °C 1007.7 hPa Calm     28% 0 mm 0.0 W/m2
03:06 21.4 °C 2.6 °C 1007.7 hPa Calm     29% 0 mm 0.0 W/m2
03:12 21.2 °C 2.5 °C 1007.7 hPa Calm     29% 0 mm 0.0 W/m2
03:17 21.1 °C 2.4 °C 1007.7 hPa Calm     29% 0 mm 0.0 W/m2
03:22 21 °C 3.2 °C 1007.7 hPa Calm     31% 0 mm 0.0 W/m2
03:27 20.8 °C 2.6 °C 1007.7 hPa Calm     30% 0 mm 0.0 W/m2
03:32 20.6 °C 2.9 °C 1007.7 hPa Calm     31% 0 mm 0.0 W/m2
03:37 20.5 °C 3.2 °C 1007.3 hPa Calm     32% 0 mm 0.0 W/m2
03:42 20.3 °C 4.3 °C 1007.3 hPa Calm     35% 0 mm 0.0 W/m2
03:48 20.2 °C 3.8 °C 1007.3 hPa Calm     34% 0 mm 0.0 W/m2
03:53 20.1 °C 3.7 °C 1007.3 hPa Calm     34% 0 mm 0.0 W/m2
03:58 20.1 °C 5.3 °C 1007.3 hPa Calm     38% 0 mm 0.0 W/m2
04:03 20.1 °C 5 °C 1007.3 hPa Calm     37% 0 mm 0.0 W/m2
04:09 20.1 °C 4.6 °C 1007.3 hPa Calm     36% 0 mm 0.0 W/m2
04:14 20 °C 6.3 °C 1007.3 hPa Calm     41% 0 mm 0.0 W/m2
04:19 19.9 °C 6.9 °C 1007 hPa Calm     43% 0 mm 0.0 W/m2
04:25 19.9 °C 7.6 °C 1007 hPa Calm     45% 0 mm 0.0 W/m2
04:31 19.9 °C 8.3 °C 1007 hPa Calm     47% 0 mm 0.0 W/m2
04:36 19.9 °C 8.9 °C 1007 hPa Calm     49% 0 mm 0.0 W/m2
04:41 20 °C 9.8 °C 1007 hPa Calm     52% 0 mm 0.0 W/m2
04:46 20.1 °C 9.1 °C 1007 hPa Calm     49% 0 mm 0.0 W/m2
04:51 20.1 °C 9.1 °C 1007 hPa Calm     49% 0 mm 0.0 W/m2
04:56 20 °C 9.3 °C 1007 hPa Calm     50% 0 mm 0.0 W/m2
05:01 20 °C 8 °C 1007 hPa Calm     46% 0 mm 0.0 W/m2
05:06 20 °C 7.4 °C 1007 hPa Calm     44% 0 mm 0.0 W/m2
05:11 20.1 °C 5.3 °C 1007 hPa Calm     38% 0 mm 0.0 W/m2
05:16 20.1 °C 5 °C 1007.3 hPa Calm     37% 0 mm 0.0 W/m2
05:21 20.2 °C 3 °C 1007.3 hPa Calm     32% 0 mm 0.0 W/m2
05:26 20.2 °C 1.6 °C 1007.3 hPa Calm     29% 0 mm 0.0 W/m2
05:31 20.4 °C 1.3 °C 1007.3 hPa Calm     28% 0 mm 0.0 W/m2
05:37 20.7 °C 0.5 °C 1007.3 hPa Calm     26% 0 mm 0.0 W/m2
05:42 20.9 °C 0.7 °C 1007.3 hPa Calm     26% 0 mm 0.0 W/m2
05:52 20.9 °C 1.2 °C 1007.3 hPa Calm     27% 0 mm 0.0 W/m2
05:57 20.8 °C 1.1 °C 1007.3 hPa Calm     27% 0 mm 0.0 W/m2
06:03 20.6 °C 1.4 °C 1007.7 hPa Calm     28% 0 mm 0.0 W/m2
06:08 20.5 °C 1.9 °C 1007.7 hPa Calm     29% 0 mm 0.0 W/m2
06:13 20.4 °C 1.8 °C 1007.7 hPa Calm     29% 0 mm 0.0 W/m2
06:23 20.4 °C 1.8 °C 1008 hPa Calm     29% 0 mm 0.0 W/m2
06:28 20.4 °C 2.2 °C 1008 hPa Calm     30% 0 mm 0.0 W/m2
06:33 20.4 °C 2.2 °C 1008.4 hPa Calm     30% 0 mm 0.0 W/m2
06:38 20.3 °C 2.6 °C 1008.4 hPa Calm     31% 0 mm 0.0 W/m2
06:43 20.3 °C 2.6 °C 1008.4 hPa Calm     31% 0 mm 0.0 W/m2
06:49 20.2 °C 2.5 °C 1008.4 hPa Calm     31% 0 mm 5.0 W/m2
06:59 20 °C 2.4 °C 1008.4 hPa Calm     31% 0 mm 11.0 W/m2
07:04 19.9 °C 2.3 °C 1008.4 hPa Calm     31% 0 mm 16.0 W/m2
07:14 19.9 °C 2.7 °C 1008.4 hPa Calm     32% 0 mm 23.0 W/m2
07:29 20.5 °C 2.8 °C 1008.7 hPa SSE 4.7 km/h 6.4 km/h 31% 0 mm 58.0 W/m2
07:35 20.8 °C 2.6 °C 1008.7 hPa Calm     30% 0 mm 53.0 W/m2
07:40 21 °C 2.3 °C 1008.7 hPa Calm     29% 0 mm 123.0 W/m2
07:45 21.3 °C 2.5 °C 1009 hPa Calm     29% 0 mm 125.0 W/m2
07:50 21.7 °C 1.9 °C 1009 hPa Calm     27% 0 mm 148.0 W/m2
08:00 22.2 °C 1.8 °C 1009 hPa SSW 7.9 km/h 9.7 km/h 26% 0 mm 185.0 W/m2
08:05 22.3 °C 1.9 °C 1008.7 hPa SSW 4.7 km/h 8 km/h 26% 0 mm 213.0 W/m2
08:11 22.4 °C 2 °C 1009 hPa SSW 7.9 km/h 9.7 km/h 26% 0 mm 246.0 W/m2
08:16 22.4 °C 2 °C 1009 hPa SSW 6.4 km/h 8 km/h 26% 0 mm 236.0 W/m2
08:26 22.8 °C 2.3 °C 1009 hPa Calm     26% 0 mm 318.0 W/m2
08:31 22.9 °C 2.4 °C 1009 hPa Calm     26% 0 mm 316.0 W/m2
08:36 23.3 °C 2.2 °C 1008.7 hPa Calm     25% 0 mm 345.0 W/m2
08:41 23.8 °C 2.6 °C 1008.7 hPa Calm     25% 0 mm 336.0 W/m2
08:53 24.2 °C 2.4 °C 1009 hPa Calm     24% 0 mm 388.0 W/m2
09:03 24.9 °C 3.5 °C 1008.7 hPa Calm     25% 0 mm 441.0 W/m2
09:13 25.7 °C 7.3 °C 1008.7 hPa Calm     31% 0 mm 468.0 W/m2
09:16 25.9 °C 12 °C 1008.7 hPa Calm     42% 0 mm 482.0 W/m2
09:26 26.1 °C 12.9 °C 1008.7 hPa Calm     44% 0 mm 494.0 W/m2
09:31 26.1 °C 14.9 °C 1008.4 hPa Calm     50% 0 mm 533.0 W/m2
09:47 26.7 °C 14.8 °C 1008.4 hPa Calm     48% 0 mm 596.0 W/m2
10:02 26.7 °C 14.8 °C 1008 hPa Calm     48% 0 mm 603.0 W/m2
10:11 27.2 °C 14.6 °C 1008 hPa Calm     46% 0 mm 689.0 W/m2
10:22 27.4 °C 13.7 °C 1008 hPa Calm     43% 0 mm 327.0 W/m2
10:28 27.4 °C 13.7 °C 1007.7 hPa Calm   3.2 km/h 43% 0 mm 738.0 W/m2
10:42 27.7 °C 14 °C 1007.7 hPa Calm     43% 0 mm 742.0 W/m2
10:50 28 °C 15.3 °C 1007.3 hPa SW 1.4 km/h 8 km/h 46% 0 mm 758.0 W/m2
14:07 32.3 °C 14 °C 1004.3 hPa Calm     33% 0 mm 904.0 W/m2
14:23 32.6 °C 13.8 °C 1003.9 hPa WNW 11.1 km/h 16.1 km/h 32% 0 mm 875.0 W/m2
14:40 32.4 °C 13.6 °C 1003.9 hPa Calm     32% 0 mm 872.0 W/m2
14:56 33.1 °C 14.2 °C 1003.6 hPa Calm     32% 0 mm 837.0 W/m2
15:10 33 °C 13.1 °C 1003.3 hPa Calm   6.4 km/h 30% 0 mm 846.0 W/m2
15:21 33.1 °C 13.2 °C 1002.9 hPa WSW 13 km/h 16.1 km/h 30% 0 mm 835.0 W/m2
15:30 33.4 °C 13.5 °C 1002.9 hPa Calm   9.7 km/h 30% 0 mm 768.0 W/m2
15:38 34.1 °C 13 °C 1002.9 hPa Calm   9.7 km/h 28% 0 mm 805.0 W/m2
15:44 34.2 °C 12.5 °C 1002.6 hPa WSW 13 km/h 19.3 km/h 27% 0 mm 789.0 W/m2
15:50 33.9 °C 12.3 °C 1002.6 hPa SW 16.3 km/h 20.9 km/h 27% 0 mm 763.0 W/m2
16:00 33.9 °C 11.7 °C 1002.3 hPa SW 14.3 km/h 16.1 km/h 26% 0 mm 721.0 W/m2
16:15 33.7 °C 11.5 °C 1002.3 hPa SW 6.4 km/h 14.5 km/h 26% 0 mm 111.0 W/m2
16:23 33.7 °C 11.5 °C 1002.3 hPa SW 6.4 km/h 14.5 km/h 26% 0 mm 111.0 W/m2
16:38 33.5 °C 10.8 °C 1002.3 hPa SSW 16.3 km/h 22.5 km/h 25% 0 mm 111.0 W/m2
16:52 33.6 °C 10.9 °C 1001.9 hPa SSW 14.3 km/h 19.3 km/h 25% 0 mm 508.0 W/m2
17:00 33.7 °C 10.3 °C 1001.9 hPa SSW 7.9 km/h 16.1 km/h 24% 0 mm 476.0 W/m2
17:15 33.8 °C 9.1 °C 1001.6 hPa South 16.3 km/h 27.4 km/h 22% 0 mm 394.0 W/m2
17:20 33.5 °C 8.2 °C 1001.6 hPa South 14.3 km/h 27.4 km/h 21% 0 mm 380.0 W/m2
19:48 29.6 °C 9.2 °C 1002.9 hPa SSW 22.7 km/h 27.4 km/h 28% 0 mm 0.0 W/m2
20:03 29.2 °C 9.3 °C 1002.9 hPa SSW 19.5 km/h 22.5 km/h 29% 0 mm 0.0 W/m2
20:18 28.6 °C 9.8 °C 1003.3 hPa SSW 20.9 km/h 25.7 km/h 31% 0 mm 0.0 W/m2
20:26 28.3 °C 10 °C 1003.6 hPa SSW 24.1 km/h 29 km/h 32% 0 mm 0.0 W/m2
20:36 28 °C 9.8 °C 1003.9 hPa South 32 km/h 32.2 km/h 32% 0 mm 0.0 W/m2
20:58 27.2 °C 10 °C 1003.9 hPa South 19.5 km/h 25.7 km/h 34% 0 mm 0.0 W/m2
21:13 26.6 °C 9.9 °C 1004.3 hPa South 20.9 km/h 32.2 km/h 35% 0 mm 0.0 W/m2
21:28 25.8 °C 11.2 °C 1004.6 hPa SSW 20.9 km/h 32.2 km/h 40% 0 mm 0.0 W/m2
21:37 25.4 °C 11.2 °C 1005 hPa SSW 16.3 km/h 27.4 km/h 41% 0 mm 0.0 W/m2
21:44 25.1 °C 11.6 °C 1005 hPa SSW 11.1 km/h 20.9 km/h 43% 0 mm 0.0 W/m2
Canyon Roadhouse, Fishriver Canyon, Namibia
Compliments of Weather Underground - 2.25 mb